createdAt,value
2023-05-20T00:01:21.588Z,2.30
2023-05-20T00:03:49.571Z,2.05
2023-05-20T00:06:17.444Z,2.22
2023-05-20T00:08:46.587Z,1.70
2023-05-20T00:11:14.364Z,2.70
2023-05-20T00:13:42.155Z,2.03
2023-05-20T00:16:10.072Z,1.90
2023-05-20T00:18:37.880Z,2.20
2023-05-20T00:21:05.650Z,2.55
2023-05-20T00:23:33.433Z,2.30
2023-05-20T00:26:02.567Z,2.65
2023-05-20T00:28:30.744Z,3.08
2023-05-20T00:30:58.484Z,2.63
2023-05-20T00:33:26.270Z,2.28
2023-05-20T00:35:53.986Z,2.08
2023-05-20T00:38:21.744Z,2.50
2023-05-20T00:40:49.533Z,2.33
2023-05-20T00:43:20.388Z,2.10
2023-05-20T00:45:48.508Z,1.85
2023-05-20T00:48:16.272Z,2.45
2023-05-20T00:50:46.396Z,2.80
2023-05-20T00:53:14.172Z,1.88
2023-05-20T00:55:42.072Z,2.08
2023-05-20T00:58:09.992Z,2.10
2023-05-20T01:00:39.630Z,1.70
2023-05-20T01:03:07.515Z,2.65
2023-05-20T01:05:35.429Z,2.20
2023-05-20T01:08:03.312Z,2.40
2023-05-20T01:10:32.408Z,1.92
2023-05-20T01:13:03.329Z,2.72
2023-05-20T01:15:32.476Z,2.47
2023-05-20T01:18:06.054Z,2.47
2023-05-20T01:20:34.547Z,2.03
2023-05-20T01:23:04.248Z,2.60
2023-05-20T01:25:32.193Z,2.28
2023-05-20T01:28:00.066Z,2.03
2023-05-20T01:30:35.501Z,1.80
2023-05-20T01:33:11.832Z,2.13
2023-05-20T01:35:42.378Z,2.30
2023-05-20T01:38:12.410Z,2.13
2023-05-20T01:40:41.914Z,2.35
2023-05-20T01:43:10.681Z,2.33
2023-05-20T01:45:39.833Z,2.30
2023-05-20T01:48:07.734Z,2.55
2023-05-20T01:50:35.515Z,2.22
2023-05-20T01:53:03.277Z,2.08
2023-05-20T01:55:32.538Z,2.90
2023-05-20T01:58:00.417Z,2.30
2023-05-20T02:00:28.334Z,2.25
2023-05-20T02:02:56.355Z,2.28
2023-05-20T02:05:24.123Z,2.13
2023-05-20T02:07:51.934Z,2.13
2023-05-20T02:10:19.709Z,2.67
2023-05-20T02:12:49.416Z,2.55
2023-05-20T02:15:17.350Z,2.35
2023-05-20T02:17:45.138Z,2.53
2023-05-20T02:20:13.993Z,2.53
2023-05-20T02:22:41.934Z,2.42
2023-05-20T02:25:10.850Z,2.80
2023-05-20T02:27:39.882Z,2.47
2023-05-20T02:30:10.468Z,2.42
2023-05-20T02:32:38.339Z,2.65
2023-05-20T02:35:06.822Z,2.40
2023-05-20T02:37:34.612Z,2.85
2023-05-20T02:40:02.366Z,2.35
2023-05-20T02:42:30.124Z,2.58
2023-05-20T02:44:58.852Z,2.42
2023-05-20T02:47:28.648Z,2.78
2023-05-20T02:49:56.609Z,2.90
2023-05-20T02:52:24.654Z,2.95
2023-05-20T02:54:52.849Z,2.20
2023-05-20T02:57:20.715Z,2.65
2023-05-20T02:59:48.444Z,2.38
2023-05-20T03:02:16.182Z,2.38
2023-05-20T03:04:46.859Z,2.20
2023-05-20T03:07:17.609Z,2.70
2023-05-20T03:09:45.360Z,2.70
2023-05-20T03:12:13.093Z,2.53
2023-05-20T03:14:40.827Z,2.53
2023-05-20T03:17:09.452Z,3.63
2023-05-20T03:19:37.560Z,2.80
2023-05-20T03:22:07.062Z,2.83
2023-05-20T03:24:34.877Z,2.33
2023-05-20T03:27:02.618Z,2.75
2023-05-20T03:29:31.329Z,2.42
2023-05-20T03:31:59.120Z,3.00
2023-05-20T03:34:28.165Z,2.60
2023-05-20T03:36:55.912Z,2.40
2023-05-20T03:39:25.132Z,2.60
2023-05-20T03:41:52.875Z,3.13
2023-05-20T03:44:20.617Z,2.42
2023-05-20T03:46:48.404Z,3.03
2023-05-20T03:49:16.188Z,2.42
2023-05-20T03:51:43.914Z,2.50
2023-05-20T03:54:11.952Z,2.22
2023-05-20T03:56:41.027Z,3.15
2023-05-20T03:59:08.752Z,3.78
2023-05-20T04:01:37.342Z,3.17
2023-05-20T04:04:06.020Z,2.20
2023-05-20T04:06:34.044Z,2.55
2023-05-20T04:09:01.790Z,3.50
2023-05-20T04:11:29.597Z,2.30
2023-05-20T04:14:00.348Z,2.88
2023-05-20T04:16:29.511Z,2.45
2023-05-20T04:18:59.143Z,2.65
2023-05-20T04:21:27.316Z,2.72
2023-05-20T04:23:55.134Z,2.08
2023-05-20T04:26:22.886Z,2.55
2023-05-20T04:28:50.684Z,2.70
2023-05-20T04:31:20.868Z,2.10
2023-05-20T04:33:48.702Z,2.08
2023-05-20T04:36:17.419Z,2.78
2023-05-20T04:38:45.439Z,2.85
2023-05-20T04:41:13.181Z,2.78
2023-05-20T04:43:40.965Z,3.15
2023-05-20T04:46:08.886Z,2.85
2023-05-20T04:48:38.186Z,2.28
2023-05-20T04:51:05.956Z,2.75
2023-05-20T04:53:34.010Z,2.47
2023-05-20T04:56:01.832Z,3.10
2023-05-20T04:58:30.302Z,2.63
2023-05-20T05:00:58.171Z,2.60
2023-05-20T05:03:26.060Z,3.00
2023-05-20T05:05:58.353Z,2.40
2023-05-20T05:08:26.430Z,2.40
2023-05-20T05:10:54.267Z,2.55
2023-05-20T05:13:21.981Z,2.30
2023-05-20T05:15:49.737Z,2.63
2023-05-20T05:18:18.601Z,2.05
2023-05-20T05:20:46.462Z,2.40
2023-05-20T05:23:15.603Z,2.67
2023-05-20T05:25:43.430Z,3.00
2023-05-20T05:28:11.133Z,2.22
2023-05-20T05:30:38.886Z,2.47
2023-05-20T05:33:06.750Z,2.60
2023-05-20T05:35:34.790Z,2.40
2023-05-20T05:38:03.158Z,2.58
2023-05-20T05:40:32.321Z,2.55
2023-05-20T05:43:00.215Z,2.28
2023-05-20T05:45:28.051Z,2.85
2023-05-20T05:47:56.014Z,2.50
2023-05-20T05:50:23.776Z,2.05
2023-05-20T05:52:51.545Z,2.13
2023-05-20T05:55:19.353Z,2.30
2023-05-20T05:57:48.461Z,2.40
2023-05-20T06:00:16.862Z,2.33
2023-05-20T06:02:44.666Z,2.20
2023-05-20T06:05:12.720Z,3.05
2023-05-20T06:07:40.461Z,2.50
2023-05-20T06:10:09.331Z,2.90
2023-05-20T06:12:37.173Z,2.40
2023-05-20T06:15:08.034Z,2.42
2023-05-20T06:17:35.869Z,2.30
2023-05-20T06:20:04.392Z,2.70
2023-05-20T06:22:32.147Z,2.20
2023-05-20T06:25:02.371Z,2.05
2023-05-20T06:27:30.276Z,2.22
2023-05-20T06:29:57.989Z,2.58
2023-05-20T06:32:27.113Z,2.25
2023-05-20T06:34:54.911Z,2.40
2023-05-20T06:37:24.497Z,1.88
2023-05-20T06:39:54.065Z,2.28
2023-05-20T06:42:22.343Z,1.95
2023-05-20T06:44:50.086Z,2.42
2023-05-20T06:47:18.864Z,2.13
2023-05-20T06:49:47.966Z,2.15
2023-05-20T06:52:15.726Z,2.08
2023-05-20T06:54:44.137Z,2.33
2023-05-20T06:57:12.047Z,2.53
2023-05-20T06:59:39.960Z,1.88
2023-05-20T07:02:07.934Z,2.95
2023-05-20T07:04:36.004Z,2.35
2023-05-20T07:07:05.437Z,1.90
2023-05-20T07:09:33.290Z,2.10
2023-05-20T07:12:01.028Z,2.22
2023-05-20T07:14:28.812Z,2.33
2023-05-20T07:16:56.544Z,2.17
2023-05-20T07:19:24.469Z,2.22
2023-05-20T07:21:52.343Z,2.33
2023-05-20T07:24:21.443Z,2.47
2023-05-20T07:26:49.425Z,2.25
2023-05-20T07:29:17.179Z,2.38
2023-05-20T07:31:45.032Z,1.90
2023-05-20T07:34:12.857Z,1.85
2023-05-20T07:36:40.912Z,1.95
2023-05-20T07:39:13.183Z,1.60
2023-05-20T07:41:44.193Z,2.15
2023-05-20T07:44:13.030Z,1.70
2023-05-20T07:46:42.014Z,1.65
2023-05-20T07:49:09.909Z,1.73
2023-05-20T07:51:37.678Z,2.13
2023-05-20T07:54:05.451Z,2.15
2023-05-20T07:56:33.350Z,2.17
2023-05-20T07:59:03.302Z,2.08
2023-05-20T08:01:31.830Z,2.28
2023-05-20T08:03:59.840Z,2.88
2023-05-20T08:06:29.663Z,1.92
2023-05-20T08:08:57.791Z,2.20
2023-05-20T08:11:25.630Z,2.00
2023-05-20T08:13:53.385Z,2.20
2023-05-20T08:16:23.610Z,2.17
2023-05-20T08:18:51.514Z,2.30
2023-05-20T08:21:19.347Z,2.20
2023-05-20T08:23:47.123Z,2.08
2023-05-20T08:26:14.876Z,1.92
2023-05-20T08:28:42.681Z,2.25
2023-05-20T08:31:10.802Z,2.65
2023-05-20T08:33:39.972Z,2.35
2023-05-20T08:36:08.187Z,2.05
2023-05-20T08:38:36.551Z,1.92
2023-05-20T08:41:04.359Z,2.25
2023-05-20T08:43:32.635Z,1.63
2023-05-20T08:46:02.385Z,1.98
2023-05-20T08:48:31.259Z,1.77
2023-05-20T08:51:01.313Z,1.90
2023-05-20T08:53:29.543Z,1.95
2023-05-20T08:56:02.773Z,1.55
2023-05-20T08:58:30.824Z,2.10
2023-05-20T09:00:59.843Z,1.80
2023-05-20T09:03:28.010Z,1.92
2023-05-20T09:06:04.475Z,2.30
2023-05-20T09:08:34.652Z,1.75
2023-05-20T09:11:02.661Z,1.90
2023-05-20T09:13:32.507Z,1.90
2023-05-20T09:16:02.042Z,2.08
2023-05-20T09:18:30.992Z,1.70
2023-05-20T09:20:59.185Z,1.85
2023-05-20T09:23:27.896Z,1.83
2023-05-20T09:25:57.003Z,1.50
2023-05-20T09:28:25.637Z,2.00
2023-05-20T09:30:59.283Z,1.80
2023-05-20T09:33:29.911Z,1.88
2023-05-20T09:36:04.214Z,1.63
2023-05-20T09:38:37.938Z,1.60
2023-05-20T09:41:09.337Z,2.05
2023-05-20T09:43:37.892Z,1.67
2023-05-20T09:46:06.131Z,1.33
2023-05-20T09:48:36.704Z,1.70
2023-05-20T09:51:06.825Z,2.00
2023-05-20T09:53:34.765Z,2.15
2023-05-20T09:56:02.539Z,1.92
2023-05-20T09:58:32.193Z,1.40
2023-05-20T10:00:59.997Z,1.70
2023-05-20T10:03:28.688Z,1.65
2023-05-20T10:06:17.353Z,1.90
2023-05-20T10:09:01.048Z,1.80
2023-05-20T10:11:39.461Z,1.88
2023-05-20T10:14:20.856Z,1.75
2023-05-20T10:16:52.866Z,1.70
2023-05-20T10:19:32.689Z,1.33
2023-05-20T10:22:02.892Z,1.98
2023-05-20T10:24:32.323Z,1.42
2023-05-20T10:27:02.772Z,1.67
2023-05-20T10:29:43.522Z,1.60
2023-05-20T10:32:11.901Z,1.95
2023-05-20T10:34:47.375Z,1.80
2023-05-20T10:37:24.691Z,1.90
2023-05-20T10:39:52.483Z,1.60
2023-05-20T10:42:30.246Z,1.67
2023-05-20T10:44:59.380Z,1.83
2023-05-20T10:47:27.247Z,1.90
2023-05-20T10:49:55.037Z,1.90
2023-05-20T10:52:23.040Z,1.40
2023-05-20T10:54:57.704Z,1.75
2023-05-20T10:57:27.168Z,1.80
2023-05-20T10:59:54.948Z,1.90
2023-05-20T11:02:27.074Z,1.95
2023-05-20T11:04:57.600Z,1.77
2023-05-20T11:07:29.373Z,1.90
2023-05-20T11:09:57.317Z,2.00
2023-05-20T11:12:27.051Z,1.70
2023-05-20T11:14:55.274Z,1.83
2023-05-20T11:17:24.409Z,1.98
2023-05-20T11:19:52.220Z,1.70
2023-05-20T11:22:20.046Z,1.52
2023-05-20T11:24:47.860Z,1.67
2023-05-20T11:27:15.702Z,1.60
2023-05-20T11:29:43.752Z,1.88
2023-05-20T11:32:11.607Z,1.73
2023-05-20T11:34:41.108Z,1.65
2023-05-20T11:37:09.878Z,2.03
2023-05-20T11:39:38.873Z,1.50
2023-05-20T11:42:07.015Z,1.85
2023-05-20T11:44:34.965Z,1.65
2023-05-20T11:47:04.105Z,1.90
2023-05-20T11:49:40.155Z,1.90
2023-05-20T11:52:12.083Z,1.90
2023-05-20T11:54:39.928Z,2.20
2023-05-20T11:57:07.768Z,1.58
2023-05-20T11:59:36.642Z,1.63
2023-05-20T12:02:04.514Z,1.80
2023-05-20T12:04:32.289Z,2.08
2023-05-20T12:07:00.135Z,1.80
2023-05-20T12:09:29.286Z,1.80
2023-05-20T12:11:57.121Z,2.00
2023-05-20T12:14:24.881Z,2.38
2023-05-20T12:16:53.720Z,2.08
2023-05-20T12:19:21.615Z,2.10
2023-05-20T12:21:49.394Z,1.80
2023-05-20T12:24:17.180Z,1.83
2023-05-20T12:26:46.432Z,1.73
2023-05-20T12:29:14.291Z,1.83
2023-05-20T12:31:42.148Z,1.45
2023-05-20T12:34:09.958Z,1.60
2023-05-20T12:36:37.946Z,1.33
2023-05-20T12:39:06.160Z,1.55
2023-05-20T12:41:33.945Z,1.67
2023-05-20T12:44:03.133Z,2.08
2023-05-20T12:46:31.192Z,1.50
2023-05-20T12:48:59.075Z,1.60
2023-05-20T12:51:26.904Z,1.65
2023-05-20T12:53:54.724Z,1.95
2023-05-20T12:56:23.026Z,1.40
2023-05-20T12:58:50.751Z,1.70
2023-05-20T13:01:19.882Z,1.75
2023-05-20T13:03:48.185Z,1.90
2023-05-20T13:06:16.667Z,1.70
2023-05-20T13:08:45.328Z,1.80
2023-05-20T13:42:45.606Z,1.60
2023-05-20T14:19:01.394Z,1.83
2023-05-20T14:21:29.192Z,1.70
2023-05-20T14:23:56.986Z,1.92
2023-05-20T14:26:24.797Z,1.70
2023-05-20T14:28:52.605Z,1.25
2023-05-20T14:31:20.746Z,1.90
2023-05-20T14:33:48.584Z,1.67
2023-05-20T14:36:17.989Z,1.80
2023-05-20T14:38:47.111Z,1.85
2023-05-20T14:41:15.996Z,2.00
2023-05-20T14:43:43.811Z,2.00
2023-05-20T14:46:12.029Z,1.85
2023-05-20T14:48:39.834Z,1.63
2023-05-20T14:51:07.623Z,1.50
2023-05-20T14:53:36.777Z,1.52
2023-05-20T14:56:04.624Z,1.85
2023-05-20T14:58:32.342Z,1.80
2023-05-20T15:01:00.203Z,1.52
2023-05-20T15:03:28.513Z,1.80
2023-05-20T15:05:56.565Z,1.70
2023-05-20T15:08:24.340Z,1.75
2023-05-20T15:10:53.585Z,1.75
2023-05-20T15:13:21.403Z,1.55
2023-05-20T15:15:49.161Z,1.50
2023-05-20T15:18:17.013Z,2.42
2023-05-20T15:20:45.118Z,1.58
2023-05-20T15:23:13.321Z,1.70
2023-05-20T15:25:41.117Z,2.13
2023-05-20T15:28:10.267Z,1.50
2023-05-20T15:30:38.301Z,1.55
2023-05-20T15:33:06.288Z,1.80
2023-05-20T15:35:34.115Z,2.83
2023-05-20T15:38:01.904Z,2.22
2023-05-20T15:40:29.669Z,2.40
2023-05-20T15:42:58.417Z,1.98
2023-05-20T15:45:28.079Z,3.03
2023-05-20T15:47:55.920Z,2.72
2023-05-20T15:50:23.959Z,2.25
2023-05-20T15:52:52.997Z,1.90
2023-05-20T15:55:23.177Z,1.75
2023-05-20T15:57:51.104Z,2.10
2023-05-20T16:00:20.397Z,1.70
2023-05-20T16:02:49.649Z,1.95
2023-05-20T16:05:17.929Z,1.65
2023-05-20T16:07:46.737Z,1.77
2023-05-20T16:10:14.514Z,2.50
2023-05-20T16:12:42.266Z,1.48
2023-05-20T16:15:11.098Z,1.60
2023-05-20T16:17:39.110Z,1.58
2023-05-20T16:20:10.184Z,1.60
2023-05-20T16:22:38.086Z,1.63
2023-05-20T16:25:06.381Z,1.40
2023-05-20T16:27:34.140Z,1.67
2023-05-20T16:30:01.874Z,1.83
2023-05-20T16:32:29.628Z,1.90
2023-05-20T16:34:57.814Z,1.67
2023-05-20T16:37:26.904Z,1.50
2023-05-20T16:39:54.662Z,1.70
2023-05-20T16:42:22.421Z,1.60
2023-05-20T16:44:52.487Z,1.17
2023-05-20T16:47:20.312Z,1.75
2023-05-20T16:49:48.142Z,1.73
2023-05-20T16:52:16.100Z,1.63
2023-05-20T16:54:45.255Z,1.77
2023-05-20T16:57:14.076Z,2.13
2023-05-20T16:59:41.815Z,1.90
2023-05-20T17:02:09.552Z,1.58
2023-05-20T17:04:37.750Z,1.92
2023-05-20T17:07:09.674Z,1.30
2023-05-20T17:09:37.658Z,1.75
2023-05-20T17:12:07.945Z,2.97
2023-05-20T17:14:37.003Z,1.95
2023-05-20T17:17:05.264Z,1.63
2023-05-20T17:19:33.117Z,1.80
2023-05-20T17:22:00.895Z,1.70
2023-05-20T17:24:28.691Z,1.85
2023-05-20T17:26:56.727Z,1.63
2023-05-20T17:29:25.892Z,1.60
2023-05-20T17:31:53.688Z,1.60
2023-05-20T17:34:21.445Z,1.40
2023-05-20T17:36:49.145Z,1.50
2023-05-20T17:39:16.984Z,1.60
2023-05-20T17:41:45.601Z,1.35
2023-05-20T17:44:13.363Z,1.27
2023-05-20T17:46:42.905Z,1.60
2023-05-20T17:49:10.797Z,1.33
2023-05-20T17:51:38.555Z,1.60
2023-05-20T17:54:06.346Z,1.48
2023-05-20T17:56:34.158Z,1.48
2023-05-20T17:59:01.897Z,1.70
2023-05-20T18:01:29.988Z,1.85
2023-05-20T18:04:03.789Z,1.33
2023-05-20T18:06:34.756Z,1.38
2023-05-20T18:09:03.623Z,1.58
2023-05-20T18:11:31.944Z,1.60
2023-05-20T18:13:59.800Z,1.45
2023-05-20T18:16:28.196Z,1.60
2023-05-20T18:18:56.565Z,1.33
2023-05-20T18:21:26.392Z,1.83
2023-05-20T18:23:54.207Z,1.67
2023-05-20T18:26:22.680Z,1.83
2023-05-20T18:28:50.991Z,1.33
2023-05-20T18:31:18.934Z,1.33
2023-05-20T18:33:46.725Z,1.42
2023-05-20T18:36:14.549Z,1.20
2023-05-20T18:38:44.956Z,1.17
2023-05-20T18:41:12.733Z,1.48
2023-05-20T18:43:40.587Z,1.35
2023-05-20T18:46:08.458Z,1.27
2023-05-20T18:48:36.427Z,1.40
2023-05-20T18:51:04.352Z,1.55
2023-05-20T18:53:32.165Z,1.45
2023-05-20T18:56:03.096Z,1.55
2023-05-20T18:58:31.117Z,1.83
2023-05-20T19:00:58.917Z,1.30
2023-05-20T19:03:26.675Z,1.50
2023-05-20T19:05:54.505Z,1.50
2023-05-20T19:08:23.192Z,1.23
2023-05-20T19:10:51.090Z,1.25
2023-05-20T19:13:20.348Z,1.38
2023-05-20T19:15:48.158Z,1.42
2023-05-20T19:18:16.297Z,1.58
2023-05-20T19:20:44.096Z,1.00
2023-05-20T19:23:11.828Z,1.27
2023-05-20T19:25:39.586Z,1.27
2023-05-20T19:28:07.538Z,1.27
2023-05-20T19:30:36.705Z,1.38
2023-05-20T19:33:06.125Z,1.33
2023-05-20T19:35:35.029Z,1.35
2023-05-20T19:38:04.946Z,1.63
2023-05-20T19:40:32.783Z,1.20
2023-05-20T19:43:00.594Z,1.35
2023-05-20T19:45:28.352Z,1.73
2023-05-20T19:47:58.132Z,1.42
2023-05-20T19:50:25.881Z,1.60
2023-05-20T19:52:53.655Z,1.40
2023-05-20T19:55:21.377Z,1.65
2023-05-20T19:57:53.293Z,1.30
2023-05-20T20:00:21.455Z,1.60
2023-05-20T20:02:49.954Z,1.15
2023-05-20T20:05:22.277Z,1.50
2023-05-20T20:07:51.522Z,1.42
2023-05-20T20:10:19.253Z,1.70
2023-05-20T20:12:46.987Z,1.60
2023-05-20T20:15:15.172Z,1.35
2023-05-20T20:17:45.357Z,1.00
2023-05-20T20:20:14.861Z,1.50
2023-05-20T20:22:43.977Z,1.60
2023-05-20T20:25:13.849Z,1.63
2023-05-20T20:27:43.897Z,1.27
2023-05-20T20:30:13.411Z,1.27
2023-05-20T20:32:41.658Z,1.70
2023-05-20T20:35:10.861Z,1.40
2023-05-20T20:37:38.714Z,1.40
2023-05-20T20:40:13.247Z,1.35
2023-05-20T20:42:44.755Z,1.63
2023-05-20T20:45:13.131Z,1.80
2023-05-20T20:47:41.114Z,2.20
2023-05-20T20:50:09.646Z,1.45
2023-05-20T20:52:38.665Z,1.70
2023-05-20T20:55:09.960Z,1.65
2023-05-20T20:57:37.824Z,1.55
2023-05-20T21:00:08.894Z,1.48
2023-05-20T21:02:36.656Z,1.80
2023-05-20T21:05:04.456Z,1.42
2023-05-20T21:07:32.493Z,1.40
2023-05-20T21:10:00.486Z,1.50
2023-05-20T21:12:29.590Z,1.60
2023-05-20T21:14:57.332Z,1.70
2023-05-20T21:17:25.062Z,1.55
2023-05-20T21:19:54.668Z,1.60
2023-05-20T21:22:22.513Z,1.60
2023-05-20T21:24:50.386Z,1.65
2023-05-20T21:27:18.128Z,1.88
2023-05-20T21:29:48.532Z,1.70
2023-05-20T21:32:16.304Z,1.80
2023-05-20T21:34:44.068Z,1.92
2023-05-20T21:37:11.851Z,1.77
2023-05-20T21:39:39.794Z,1.55
2023-05-20T21:42:07.768Z,1.60
2023-05-20T21:44:35.505Z,1.90
2023-05-20T21:47:04.647Z,1.65
2023-05-20T21:49:33.003Z,1.80
2023-05-20T21:52:00.812Z,2.30
2023-05-20T21:54:28.549Z,2.38
2023-05-20T21:56:56.314Z,1.83
2023-05-20T21:59:24.052Z,2.28
2023-05-20T22:01:51.801Z,1.80
2023-05-20T22:04:21.677Z,1.83
2023-05-20T22:06:50.777Z,1.70
2023-05-20T22:09:18.521Z,2.22
2023-05-20T22:11:48.011Z,2.17
2023-05-20T22:14:16.270Z,1.92
2023-05-20T22:16:46.495Z,2.03
2023-05-20T22:19:15.687Z,2.10
2023-05-20T22:21:50.605Z,1.75
2023-05-20T22:24:19.113Z,1.92
2023-05-20T22:26:46.860Z,1.65
2023-05-20T22:29:14.767Z,1.92
2023-05-20T22:31:42.638Z,1.95
2023-05-20T22:34:10.533Z,2.05
2023-05-20T22:36:39.424Z,2.10
2023-05-20T22:39:08.654Z,2.25
2023-05-20T22:41:36.561Z,2.08
2023-05-20T22:44:04.451Z,2.05
2023-05-20T22:46:32.348Z,2.30
2023-05-20T22:49:01.785Z,2.10
2023-05-20T22:51:31.259Z,2.22
2023-05-20T22:53:58.995Z,2.00
2023-05-20T22:56:29.503Z,1.70
2023-05-20T22:58:57.248Z,2.30
2023-05-20T23:01:25.038Z,2.67
2023-05-20T23:03:53.764Z,2.20
2023-05-20T23:06:22.559Z,1.85
2023-05-20T23:08:50.496Z,2.70
2023-05-20T23:11:18.225Z,2.30
2023-05-20T23:13:47.333Z,1.80
2023-05-20T23:16:15.215Z,1.80
2023-05-20T23:18:43.075Z,2.38
2023-05-20T23:21:10.874Z,1.90
2023-05-20T23:23:38.621Z,1.90
2023-05-20T23:26:06.487Z,2.10
2023-05-20T23:28:34.256Z,2.20
2023-05-20T23:31:03.482Z,1.92
2023-05-20T23:33:31.514Z,2.70
2023-05-20T23:35:59.364Z,2.25
2023-05-20T23:38:27.178Z,2.15
2023-05-20T23:40:54.946Z,2.42
2023-05-20T23:43:22.711Z,2.20
2023-05-20T23:45:50.514Z,1.83
2023-05-20T23:48:19.917Z,2.05
2023-05-20T23:50:48.186Z,2.53
2023-05-20T23:53:15.950Z,2.15
2023-05-20T23:55:45.103Z,2.17
2023-05-20T23:58:12.875Z,2.53
